Time;durP1;ratioP1;P1;durP2;ratioP2;P2;SDS_P1;SDS_P2;PMS_P1;PMS_P2;Temp;Humidity;BMP_temperature;BMP_pressure;BME280_temperature;BME280_humidity;BME280_pressure;Samples;Min_cycle;Max_cycle;Signal;HPM_P1;HPM_P2
2022/08/20 00:00:23;;;;;;;7.55;2.30;;;19.20;99.90;;;;;;5021388;28;20858;-80
2022/08/20 00:02:53;;;;;;;5.55;2.17;;;19.20;99.90;;;;;;5023209;28;20565;-80
2022/08/20 00:05:26;;;;;;;5.88;2.00;;;19.10;99.90;;;;;;5022584;28;20065;-80
2022/08/20 00:07:52;;;;;;;4.22;2.03;;;19.10;99.90;;;;;;5024573;28;20060;-80
2022/08/20 00:10:19;;;;;;;4.50;1.98;;;19.10;99.90;;;;;;5019758;28;20046;-80
2022/08/20 00:12:47;;;;;;;4.63;1.50;;;19.00;99.90;;;;;;5021460;28;20042;-79
2022/08/20 00:15:14;;;;;;;7.63;2.53;;;19.00;99.90;;;;;;5020142;28;20547;-79
2022/08/20 00:17:40;;;;;;;6.68;2.15;;;19.00;99.90;;;;;;5020538;28;20618;-79
2022/08/20 00:20:11;;;;;;;3.40;1.52;;;18.90;99.90;;;;;;5022279;28;20583;-80
2022/08/20 00:22:40;;;;;;;4.95;1.75;;;18.90;99.90;;;;;;5020071;28;20057;-79
2022/08/20 00:25:08;;;;;;;5.70;2.53;;;18.90;99.90;;;;;;5020362;28;20069;-80
2022/08/20 00:27:34;;;;;;;5.32;1.88;;;18.90;99.90;;;;;;5019819;28;20038;-80
2022/08/20 00:30:00;;;;;;;5.22;1.80;;;18.80;99.90;;;;;;5021627;28;20041;-80
2022/08/20 00:32:26;;;;;;;6.72;2.35;;;18.80;99.90;;;;;;5018416;28;20140;-80
2022/08/20 00:34:52;;;;;;;8.57;2.00;;;18.80;99.90;;;;;;5023567;28;20492;-80
2022/08/20 00:37:18;;;;;;;6.00;3.63;;;18.80;99.90;;;;;;5006229;28;20073;-80
2022/08/20 00:39:43;;;;;;;4.55;1.75;;;18.80;99.90;;;;;;5022450;28;20042;-79
2022/08/20 00:42:09;;;;;;;6.32;1.95;;;18.70;99.90;;;;;;5018576;28;20136;-79
2022/08/20 00:44:36;;;;;;;7.68;2.72;;;18.70;99.90;;;;;;5019746;28;20918;-79
2022/08/20 00:47:03;;;;;;;7.93;2.25;;;18.70;99.90;;;;;;5020331;28;20042;-79
2022/08/20 00:49:31;;;;;;;3.47;2.50;;;18.70;99.90;;;;;;5021826;28;20042;-79
2022/08/20 00:52:04;;;;;;;7.32;2.15;;;18.70;99.90;;;;;;5021638;28;20303;-80
2022/08/20 00:54:38;;;;;;;6.63;2.13;;;18.70;99.90;;;;;;5022551;28;20108;-79
2022/08/20 00:57:11;;;;;;;3.25;1.95;;;18.70;99.90;;;;;;5018442;28;20037;-79
2022/08/20 00:59:40;;;;;;;5.65;2.63;;;18.60;99.90;;;;;;5021191;28;20041;-79
2022/08/20 01:02:10;;;;;;;5.10;1.85;;;18.70;99.90;;;;;;5019797;28;20850;-80
2022/08/20 01:04:36;;;;;;;5.45;2.38;;;18.60;99.90;;;;;;5019062;28;20546;-80
2022/08/20 01:07:05;;;;;;;6.18;2.53;;;18.70;99.90;;;;;;5019079;28;20057;-79
2022/08/20 01:09:32;;;;;;;3.70;1.77;;;18.50;99.90;;;;;;5021211;28;20053;-79
2022/08/20 01:11:58;;;;;;;5.28;2.47;;;18.50;99.90;;;;;;5019094;28;20520;-79
2022/08/20 01:15:07;;;;;;;7.38;2.20;;;18.50;99.90;;;;;;5019275;28;20042;-79
2022/08/20 01:17:22;;;;;;;6.57;2.33;;;18.50;99.90;;;;;;5018604;28;20045;-79
2022/08/20 01:20:09;;;;;;;7.82;2.35;;;18.50;99.90;;;;;;5022298;28;20050;-79
2022/08/20 01:25:56;;;;;;;9.95;2.65;;;18.40;99.90;;;;;;5022260;28;20041;-79
2022/08/20 01:28:47;;;;;;;6.60;2.78;;;18.40;99.90;;;;;;5020363;28;20049;-80
2022/08/20 01:31:16;;;;;;;6.13;2.00;;;18.40;99.90;;;;;;5019107;28;20058;-80
2022/08/20 01:33:43;;;;;;;14.40;2.47;;;18.30;99.90;;;;;;5018078;28;20095;-80
2022/08/20 01:36:09;;;;;;;5.55;2.03;;;18.30;99.90;;;;;;5020689;28;20048;-80
2022/08/20 01:38:36;;;;;;;6.38;2.05;;;18.30;99.90;;;;;;5018805;28;20046;-80
2022/08/20 01:41:20;;;;;;;6.88;1.70;;;18.30;99.90;;;;;;5017528;28;20057;-80
2022/08/20 01:43:47;;;;;;;5.95;2.80;;;18.30;99.90;;;;;;5002610;28;20041;-79
2022/08/20 01:46:14;;;;;;;5.32;2.45;;;18.30;99.90;;;;;;5017526;28;20902;-80
2022/08/20 01:48:41;;;;;;;7.45;1.90;;;18.20;99.90;;;;;;5053077;28;20052;-79
2022/08/20 01:51:12;;;;;;;5.68;2.67;;;18.30;99.90;;;;;;5022463;28;20045;-80
2022/08/20 01:53:42;;;;;;;5.70;1.42;;;18.20;99.90;;;;;;5053110;28;20045;-79
2022/08/20 01:56:10;;;;;;;6.85;2.72;;;18.20;99.90;;;;;;5036509;28;20038;-80
2022/08/20 01:58:42;;;;;;;6.00;1.80;;;18.20;99.90;;;;;;5003730;28;20496;-79
2022/08/20 02:01:19;;;;;;;8.70;2.22;;;18.10;99.90;;;;;;5018591;28;20121;-80
2022/08/20 02:03:45;;;;;;;3.30;1.80;;;18.10;99.90;;;;;;5018400;28;20067;-79
2022/08/20 02:06:10;;;;;;;4.47;2.15;;;18.10;99.90;;;;;;5018739;28;20511;-80
2022/08/20 02:08:36;;;;;;;5.10;1.80;;;18.10;99.90;;;;;;5019144;28;20089;-79
2022/08/20 02:11:02;;;;;;;2.45;1.75;;;18.10;99.90;;;;;;5021088;28;20042;-80
2022/08/20 02:13:28;;;;;;;4.90;1.77;;;18.10;99.90;;;;;;5019559;28;20049;-79
2022/08/20 02:15:54;;;;;;;6.20;2.10;;;18.10;99.90;;;;;;5018074;28;20048;-80
2022/08/20 02:18:20;;;;;;;4.32;1.70;;;18.00;99.90;;;;;;5017729;28;20515;-79
2022/08/20 02:20:47;;;;;;;4.38;1.95;;;18.00;99.90;;;;;;5015514;28;20084;-80
2022/08/20 02:23:15;;;;;;;8.15;2.00;;;18.00;99.90;;;;;;5048736;28;20042;-80
2022/08/20 02:25:42;;;;;;;7.03;2.33;;;17.90;99.90;;;;;;5018352;28;20531;-80
2022/08/20 02:28:11;;;;;;;4.47;2.15;;;18.00;99.90;;;;;;5004789;28;20045;-80
2022/08/20 02:30:43;;;;;;;6.15;2.20;;;17.90;99.90;;;;;;5004882;28;20042;-81
2022/08/20 02:33:12;;;;;;;4.13;1.50;;;17.90;99.90;;;;;;5020278;28;20502;-79
2022/08/20 02:35:41;;;;;;;5.72;1.60;;;17.90;99.90;;;;;;5020608;28;20117;-80
2022/08/20 02:38:08;;;;;;;4.47;1.50;;;17.90;99.90;;;;;;5001046;28;20595;-79
2022/08/20 02:40:34;;;;;;;3.97;1.55;;;17.90;99.90;;;;;;5017925;28;20046;-79
2022/08/20 02:43:03;;;;;;;6.03;1.98;;;17.80;99.90;;;;;;5001364;28;20050;-79
2022/08/20 02:45:34;;;;;;;2.38;1.23;;;17.80;99.90;;;;;;5018692;28;20046;-79
2022/08/20 02:48:00;;;;;;;5.45;1.85;;;17.80;99.90;;;;;;5021601;28;20057;-79
2022/08/20 02:50:27;;;;;;;3.70;1.27;;;17.70;99.90;;;;;;5049009;28;20357;-80
2022/08/20 02:52:53;;;;;;;3.97;1.60;;;17.70;99.90;;;;;;5016952;28;20068;-79
2022/08/20 02:55:20;;;;;;;10.35;2.63;;;17.70;99.90;;;;;;5002828;28;20894;-80
2022/08/20 02:57:46;;;;;;;2.67;1.40;;;17.70;99.90;;;;;;5015931;28;20583;-80
2022/08/20 03:00:18;;;;;;;5.65;1.88;;;17.60;99.90;;;;;;5018247;28;20104;-80
2022/08/20 03:02:44;;;;;;;5.93;2.28;;;17.60;99.90;;;;;;5017003;28;20041;-80
2022/08/20 03:05:11;;;;;;;4.13;1.58;;;17.60;99.90;;;;;;5019523;28;20049;-80
2022/08/20 03:07:46;;;;;;;6.65;2.10;;;17.60;99.90;;;;;;5018403;28;20042;-80
2022/08/20 03:10:13;;;;;;;7.82;1.73;;;17.60;99.90;;;;;;5015949;28;20105;-80
2022/08/20 03:12:40;;;;;;;6.95;1.77;;;17.60;99.90;;;;;;5017095;28;20540;-80
2022/08/20 03:15:08;;;;;;;5.88;1.60;;;17.60;99.90;;;;;;5016699;28;20049;-80
2022/08/20 03:17:35;;;;;;;5.70;2.80;;;17.60;99.90;;;;;;5016907;28;20101;-80
2022/08/20 03:20:03;;;;;;;5.60;1.52;;;17.50;99.90;;;;;;5018464;28;20046;-80
2022/08/20 03:22:29;;;;;;;7.53;3.15;;;17.50;99.90;;;;;;5018695;28;20163;-80
2022/08/20 03:24:54;;;;;;;6.15;2.05;;;17.50;99.90;;;;;;5020446;28;20038;-80
2022/08/20 03:27:20;;;;;;;5.82;1.77;;;17.50;99.90;;;;;;5016776;28;20084;-80
2022/08/20 03:29:46;;;;;;;4.00;1.77;;;17.50;99.90;;;;;;5018306;28;20142;-80
2022/08/20 03:32:12;;;;;;;5.47;2.20;;;17.40;99.90;;;;;;5020296;28;20523;-80
2022/08/20 03:34:38;;;;;;;3.40;1.52;;;17.40;99.90;;;;;;5020212;28;20088;-80
2022/08/20 03:37:04;;;;;;;5.32;1.80;;;17.40;99.90;;;;;;5019048;28;20053;-80
2022/08/20 03:39:30;;;;;;;3.22;1.30;;;17.30;99.90;;;;;;5018820;28;20578;-80
2022/08/20 03:41:55;;;;;;;3.67;1.63;;;17.40;99.90;;;;;;5016986;28;20058;-80
2022/08/20 03:44:21;;;;;;;5.07;1.88;;;17.30;99.90;;;;;;5052689;28;20076;-80
2022/08/20 03:46:47;;;;;;;5.78;1.63;;;17.30;99.90;;;;;;5024576;28;20606;-80
2022/08/20 03:49:13;;;;;;;3.00;1.27;;;17.30;99.90;;;;;;5024216;28;20046;-80
2022/08/20 03:51:39;;;;;;;5.07;2.10;;;17.30;99.90;;;;;;5025613;28;20065;-79
2022/08/20 03:54:05;;;;;;;3.45;1.83;;;17.30;99.90;;;;;;5026454;28;20124;-80
2022/08/20 03:56:30;;;;;;;5.45;1.80;;;17.20;99.90;;;;;;5025600;28;20153;-80
2022/08/20 03:58:56;;;;;;;6.93;1.70;;;17.20;99.90;;;;;;5023177;28;20045;-80
2022/08/20 04:01:22;;;;;;;3.90;1.50;;;17.20;99.90;;;;;;5018951;28;20053;-80
2022/08/20 04:03:48;;;;;;;3.92;1.83;;;17.20;99.90;;;;;;5020270;28;20072;-80
2022/08/20 04:06:14;;;;;;;10.25;2.58;;;17.20;99.90;;;;;;5023147;28;20547;-80
2022/08/20 04:08:40;;;;;;;5.32;1.63;;;17.10;99.90;;;;;;5019986;28;20045;-79
2022/08/20 04:11:06;;;;;;;3.97;1.70;;;17.10;99.90;;;;;;5024411;28;20447;-79
2022/08/20 04:13:32;;;;;;;4.82;2.58;;;17.10;99.90;;;;;;5037946;28;20104;-79
2022/08/20 04:16:02;;;;;;;4.03;1.38;;;17.10;99.90;;;;;;5007919;28;20119;-80
2022/08/20 04:18:28;;;;;;;4.05;2.00;;;17.10;99.90;;;;;;5021799;28;20045;-80
2022/08/20 04:20:54;;;;;;;9.65;2.20;;;17.10;99.90;;;;;;5022063;28;20045;-80
2022/08/20 04:23:21;;;;;;;3.75;1.60;;;17.00;99.90;;;;;;5019714;28;20042;-79
2022/08/20 04:25:47;;;;;;;3.80;1.90;;;17.00;99.90;;;;;;5053136;27;20073;-80
2022/08/20 04:28:27;;;;;;;4.55;1.63;;;17.00;99.90;;;;;;5020344;28;20073;-80
2022/08/20 04:30:54;;;;;;;9.15;1.85;;;17.00;99.90;;;;;;5019849;28;20050;-81
2022/08/20 04:33:20;;;;;;;4.32;2.10;;;17.00;99.90;;;;;;5020106;28;20049;-80
2022/08/20 04:35:46;;;;;;;4.13;2.20;;;17.00;99.90;;;;;;5005711;28;20197;-81
2022/08/20 04:38:15;;;;;;;3.60;1.83;;;16.90;99.90;;;;;;5049853;28;20130;-80
2022/08/20 04:40:56;;;;;;;5.88;1.73;;;16.90;99.90;;;;;;5020335;28;20113;-80
2022/08/20 04:43:25;;;;;;;3.60;1.38;;;16.90;99.90;;;;;;5016190;28;20180;-80
2022/08/20 04:45:52;;;;;;;3.35;1.50;;;16.90;99.90;;;;;;5019470;28;20050;-80
2022/08/20 04:48:19;;;;;;;4.07;1.30;;;16.80;99.90;;;;;;5019056;28;20046;-80
2022/08/20 04:50:45;;;;;;;4.30;1.35;;;16.80;99.90;;;;;;5053500;28;20037;-80
2022/08/20 04:53:13;;;;;;;6.80;1.77;;;16.80;99.90;;;;;;5019934;28;20049;-79
2022/08/20 04:55:41;;;;;;;5.30;1.48;;;16.80;99.90;;;;;;5022467;28;20134;-79
2022/08/20 04:58:11;;;;;;;7.63;2.08;;;16.80;99.90;;;;;;5017887;28;20145;-79
2022/08/20 05:00:37;;;;;;;4.25;1.17;;;16.80;99.90;;;;;;5022565;28;20052;-80
2022/08/20 05:03:05;;;;;;;5.75;2.15;;;16.80;99.90;;;;;;5020199;28;20125;-80
2022/08/20 05:05:34;;;;;;;7.75;1.80;;;16.70;99.90;;;;;;5005548;28;20045;-80
2022/08/20 05:08:00;;;;;;;6.53;1.55;;;16.70;99.90;;;;;;5022276;28;20129;-80
2022/08/20 05:10:27;;;;;;;3.80;1.80;;;16.70;99.90;;;;;;5021859;28;20042;-78
2022/08/20 05:12:53;;;;;;;4.22;1.50;;;16.70;99.90;;;;;;5040184;28;20046;-79
2022/08/20 05:15:19;;;;;;;2.72;1.55;;;16.70;99.90;;;;;;5021537;28;21236;-78
2022/08/20 05:17:45;;;;;;;4.13;1.63;;;16.70;99.90;;;;;;5020540;28;20046;-78
2022/08/20 05:20:16;;;;;;;3.17;1.40;;;16.70;99.90;;;;;;5019199;28;20125;-78
2022/08/20 05:22:43;;;;;;;4.88;2.03;;;16.70;99.90;;;;;;5022071;28;20601;-79
2022/08/20 05:25:09;;;;;;;4.13;1.92;;;16.70;99.90;;;;;;5022832;28;21013;-79
2022/08/20 05:27:35;;;;;;;4.25;1.85;;;16.70;99.90;;;;;;5022012;28;20124;-80
2022/08/20 05:30:06;;;;;;;2.97;1.20;;;16.70;99.90;;;;;;5020008;28;20041;-79
2022/08/20 05:32:32;;;;;;;5.00;1.85;;;16.70;99.90;;;;;;5035433;28;20100;-80
2022/08/20 05:35:00;;;;;;;2.90;1.75;;;16.70;99.90;;;;;;5020859;28;20128;-79
2022/08/20 05:37:26;;;;;;;7.72;2.03;;;16.70;99.90;;;;;;5017058;28;20484;-81
2022/08/20 05:39:52;;;;;;;4.15;1.33;;;16.70;99.90;;;;;;5020708;28;20052;-80
2022/08/20 05:42:18;;;;;;;4.05;1.35;;;16.70;99.90;;;;;;5021858;28;20057;-79
2022/08/20 05:44:45;;;;;;;6.88;1.92;;;16.70;99.90;;;;;;5022767;28;20049;-79
2022/08/20 05:47:12;;;;;;;8.52;2.40;;;16.70;99.90;;;;;;5018823;28;20104;-79
2022/08/20 05:49:38;;;;;;;6.50;1.80;;;16.70;99.90;;;;;;5020470;28;20037;-79
2022/08/20 05:52:05;;;;;;;4.13;1.90;;;16.60;99.90;;;;;;5019465;28;20096;-79
2022/08/20 05:54:31;;;;;;;7.47;3.05;;;16.60;99.90;;;;;;5054611;28;20121;-79
2022/08/20 05:56:57;;;;;;;4.07;1.73;;;16.70;99.90;;;;;;5018952;28;20646;-80
2022/08/20 05:59:24;;;;;;;8.30;2.58;;;16.70;99.90;;;;;;5022191;28;20042;-79
2022/08/20 06:01:51;;;;;;;5.47;2.15;;;16.70;99.90;;;;;;5016657;28;20124;-80
2022/08/20 06:04:23;;;;;;;4.80;1.58;;;16.70;99.90;;;;;;5019801;28;20048;-80
2022/08/20 06:06:54;;;;;;;3.92;1.70;;;16.70;99.90;;;;;;5035365;28;20567;-80
2022/08/20 06:09:22;;;;;;;6.22;2.33;;;16.70;99.90;;;;;;5015985;28;20041;-80
2022/08/20 06:11:48;;;;;;;8.23;2.20;;;16.70;99.90;;;;;;5019109;28;20042;-80
2022/08/20 06:14:15;;;;;;;7.25;2.58;;;16.70;99.90;;;;;;5020458;28;20053;-79
2022/08/20 06:16:41;;;;;;;5.47;2.13;;;16.70;99.90;;;;;;5016228;28;20080;-80
2022/08/20 06:19:08;;;;;;;7.45;2.20;;;16.70;99.90;;;;;;5020628;28;20663;-80
2022/08/20 06:21:33;;;;;;;6.88;2.42;;;16.70;99.90;;;;;;5019428;28;20033;-80
2022/08/20 06:23:59;;;;;;;5.43;2.20;;;16.70;99.90;;;;;;5021028;28;20046;-80
2022/08/20 06:26:25;;;;;;;7.00;1.98;;;16.80;99.90;;;;;;5018330;28;20433;-81
2022/08/20 06:28:52;;;;;;;9.02;2.00;;;16.80;99.90;;;;;;5020212;28;20061;-81
2022/08/20 06:31:18;;;;;;;7.78;2.72;;;16.80;99.90;;;;;;5018848;28;20050;-80
2022/08/20 06:33:44;;;;;;;8.27;1.95;;;16.80;99.90;;;;;;5020731;28;20048;-81
2022/08/20 06:36:10;;;;;;;6.32;1.90;;;16.80;99.90;;;;;;5036836;28;20099;-81
2022/08/20 06:38:35;;;;;;;6.43;2.10;;;16.80;99.90;;;;;;5034888;28;20041;-79
2022/08/20 06:41:01;;;;;;;7.53;2.15;;;16.70;99.90;;;;;;5022855;28;20050;-81
2022/08/20 06:43:27;;;;;;;10.57;2.75;;;16.80;99.90;;;;;;5021263;28;20045;-81
2022/08/20 06:45:56;;;;;;;5.32;2.08;;;16.80;99.90;;;;;;5019811;28;20164;-82
2022/08/20 06:48:23;;;;;;;6.60;2.17;;;16.80;99.90;;;;;;5053717;28;20042;-79
2022/08/20 06:50:49;;;;;;;6.68;2.00;;;16.80;99.90;;;;;;5021154;28;20519;-80
2022/08/20 06:53:17;;;;;;;6.10;1.73;;;16.80;99.90;;;;;;5000789;28;20075;-80
2022/08/20 06:55:50;;;;;;;5.05;2.05;;;16.80;99.90;;;;;;5019429;28;20042;-79
2022/08/20 06:58:15;;;;;;;11.15;2.30;;;16.80;99.90;;;;;;5018752;28;21028;-80
2022/08/20 07:00:43;;;;;;;5.70;2.75;;;16.90;99.90;;;;;;5016393;28;20046;-80
2022/08/20 07:03:08;;;;;;;7.68;2.70;;;16.90;99.90;;;;;;5018486;28;20045;-80
2022/08/20 07:05:37;;;;;;;11.02;2.60;;;16.90;99.90;;;;;;5018417;28;20205;-80
2022/08/20 07:08:04;;;;;;;5.60;2.35;;;17.00;99.90;;;;;;5018662;28;20034;-80
2022/08/20 07:10:30;;;;;;;6.20;2.67;;;17.00;99.90;;;;;;5017251;28;20058;-80
2022/08/20 07:12:58;;;;;;;8.43;2.70;;;17.00;99.90;;;;;;5015184;28;20040;-80
2022/08/20 07:15:26;;;;;;;8.07;2.83;;;17.00;99.90;;;;;;5015120;28;20052;-80
2022/08/20 07:17:58;;;;;;;9.25;3.45;;;17.00;99.90;;;;;;5018493;28;20123;-80
2022/08/20 07:20:25;;;;;;;8.50;2.97;;;17.00;99.90;;;;;;5022860;28;20049;-80
2022/08/20 07:22:51;;;;;;;10.70;4.38;;;17.10;99.90;;;;;;5020790;28;20052;-81
2022/08/20 07:25:20;;;;;;;13.50;2.80;;;17.10;99.90;;;;;;5022952;28;20212;-80
2022/08/20 07:27:47;;;;;;;10.65;3.15;;;17.10;99.90;;;;;;5023208;28;20400;-80
2022/08/20 07:33:07;;;;;;;9.52;3.30;;;17.10;99.90;;;;;;5023350;28;20037;-80
2022/08/20 07:35:33;;;;;;;11.60;3.55;;;17.20;99.90;;;;;;5021586;28;20540;-80
2022/08/20 07:37:59;;;;;;;10.13;4.03;;;17.20;99.90;;;;;;5022934;28;20042;-80
2022/08/20 07:40:30;;;;;;;14.82;3.38;;;17.20;99.90;;;;;;5053886;28;20338;-80
2022/08/20 07:42:59;;;;;;;8.88;3.38;;;17.10;99.90;;;;;;5024311;28;20062;-81
2022/08/20 07:45:26;;;;;;;12.80;2.92;;;17.20;99.90;;;;;;5018222;28;20099;-80
2022/08/20 07:47:54;;;;;;;7.18;2.75;;;17.20;99.90;;;;;;5023924;28;20038;-80
2022/08/20 07:50:23;;;;;;;11.88;3.53;;;17.20;99.90;;;;;;5023662;28;20045;-80
2022/08/20 07:52:52;;;;;;;6.93;2.55;;;17.30;99.90;;;;;;5053302;28;20514;-80
2022/08/20 07:55:20;;;;;;;8.10;3.05;;;17.30;99.90;;;;;;5019222;28;20621;-80
2022/08/20 07:57:47;;;;;;;8.75;2.88;;;;;;;;;;5018233;28;20042;-81
2022/08/20 08:00:14;;;;;;;11.77;2.22;;;17.40;99.90;;;;;;5034274;28;20699;-80
2022/08/20 08:02:40;;;;;;;7.35;2.92;;;17.40;99.90;;;;;;5020717;28;20041;-80
2022/08/20 08:05:09;;;;;;;12.95;3.55;;;17.40;99.90;;;;;;5024798;28;20561;-94
2022/08/20 08:07:38;;;;;;;13.35;3.30;;;17.40;99.90;;;;;;5023107;28;20096;-79
2022/08/20 08:10:06;;;;;;;10.63;2.90;;;17.60;99.90;;;;;;5024499;28;20038;-82
2022/08/20 08:12:39;;;;;;;9.60;2.80;;;17.50;99.90;;;;;;5024100;28;20049;-81
2022/08/20 08:15:08;;;;;;;12.13;3.17;;;17.60;99.90;;;;;;5024576;28;20042;-81
2022/08/20 08:17:36;;;;;;;13.85;3.58;;;17.60;99.90;;;;;;5013989;28;20169;-85
2022/08/20 08:20:05;;;;;;;7.97;2.65;;;17.60;99.90;;;;;;5032060;28;20033;-85
2022/08/20 08:22:31;;;;;;;11.93;3.17;;;17.70;99.90;;;;;;5014951;28;20351;-85
2022/08/20 08:25:00;;;;;;;9.48;3.03;;;17.80;99.90;;;;;;5016937;28;20052;-84
2022/08/20 08:27:33;;;;;;;14.73;3.58;;;17.90;99.90;;;;;;5022387;28;20100;-84
2022/08/20 08:30:03;;;;;;;9.15;2.55;;;18.00;99.90;;;;;;5018738;28;20065;-84
2022/08/20 08:32:32;;;;;;;11.43;3.35;;;18.00;99.90;;;;;;5023345;28;20107;-85
2022/08/20 08:35:02;;;;;;;13.38;3.67;;;18.00;99.90;;;;;;5022979;28;20132;-85
2022/08/20 08:37:28;;;;;;;7.55;3.35;;;18.10;99.90;;;;;;5020033;28;20042;-85
2022/08/20 08:39:54;;;;;;;9.63;2.92;;;18.30;99.90;;;;;;5021150;28;20041;-84
2022/08/20 08:42:26;;;;;;;11.10;2.75;;;18.40;99.90;;;;;;5020846;28;20057;-85
2022/08/20 08:44:53;;;;;;;8.95;3.83;;;18.70;99.90;;;;;;5007391;28;20050;-86
2022/08/20 08:47:33;;;;;;;10.25;4.10;;;18.80;99.90;;;;;;5023021;28;20042;-85
2022/08/20 08:50:01;;;;;;;8.23;3.05;;;18.90;99.90;;;;;;5023415;28;20042;-85
2022/08/20 08:52:34;;;;;;;5.13;2.10;;;18.90;99.90;;;;;;5022915;28;20132;-84
2022/08/20 08:55:05;;;;;;;9.70;2.53;;;18.80;99.90;;;;;;5019121;28;20053;-85
2022/08/20 08:57:31;;;;;;;;;;;18.80;99.90;;;;;;5008746;28;20045;-84
2022/08/20 09:00:09;;;;;;;9.38;2.63;;;18.80;99.90;;;;;;5023731;28;20372;-84
2022/08/20 09:02:37;;;;;;;5.97;2.03;;;18.80;99.90;;;;;;5039310;28;20045;-85
2022/08/20 09:05:13;;;;;;;11.43;3.83;;;19.00;99.90;;;;;;5021319;28;20049;-85
2022/08/20 09:07:43;;;;;;;10.40;2.60;;;19.10;99.90;;;;;;5024779;28;20908;-86
2022/08/20 09:10:10;;;;;;;9.13;2.88;;;19.10;99.90;;;;;;5025021;28;20045;-86
2022/08/20 09:12:35;;;;;;;7.43;2.33;;;19.00;99.90;;;;;;5021616;28;20045;-86
2022/08/20 09:15:01;;;;;;;8.35;2.40;;;19.10;99.90;;;;;;5022116;28;20105;-85
2022/08/20 09:17:27;;;;;;;7.78;2.60;;;19.20;99.90;;;;;;5026176;28;20096;-92
2022/08/20 09:19:53;;;;;;;8.90;2.83;;;19.30;99.90;;;;;;5021152;28;20459;-85
2022/08/20 09:22:21;;;;;;;17.88;3.38;;;19.30;99.90;;;;;;5005586;28;20107;-86
2022/08/20 09:24:47;;;;;;;10.70;2.45;;;19.30;99.90;;;;;;5056738;28;20127;-85
2022/08/20 09:27:13;;;;;;;8.25;3.90;;;19.20;99.90;;;;;;5024692;28;20034;-85
2022/08/20 09:29:40;;;;;;;14.18;2.55;;;19.20;99.90;;;;;;5028537;28;20056;-85
2022/08/20 09:32:13;;;;;;;12.90;2.72;;;19.10;99.90;;;;;;5010522;28;20037;-85
2022/08/20 09:34:42;;;;;;;9.18;2.88;;;19.20;99.90;;;;;;5010334;28;20054;-85
2022/08/20 09:37:08;;;;;;;13.32;3.25;;;19.20;99.90;;;;;;5026326;28;20065;-85
2022/08/20 09:39:35;;;;;;;10.52;2.97;;;19.40;99.90;;;;;;5029446;28;20133;-87
2022/08/20 09:42:09;;;;;;;11.25;2.53;;;19.50;99.90;;;;;;5027388;28;20587;-87
2022/08/20 09:44:35;;;;;;;13.13;3.63;;;19.70;99.90;;;;;;5028720;28;20638;-88
2022/08/20 09:47:01;;;;;;;9.30;2.40;;;19.70;99.90;;;;;;5029423;28;20105;-87
2022/08/20 09:49:28;;;;;;;7.95;2.40;;;19.60;99.90;;;;;;5030844;28;20037;-88
2022/08/20 09:51:54;;;;;;;6.40;2.03;;;19.60;99.90;;;;;;5028435;28;20142;-87
2022/08/20 09:54:20;;;;;;;12.98;3.72;;;19.60;99.90;;;;;;5029407;28;20045;-85
2022/08/20 09:56:46;;;;;;;8.68;3.88;;;19.80;99.90;;;;;;5044825;28;20041;-86
2022/08/20 09:59:14;;;;;;;8.40;2.70;;;19.90;99.90;;;;;;5027738;28;20037;-85
2022/08/20 10:01:39;;;;;;;3.83;2.13;;;20.10;99.90;;;;;;5026390;28;20049;-86
2022/08/20 10:04:06;;;;;;;8.57;2.50;;;20.20;99.90;;;;;;5026247;28;20120;-85
2022/08/20 10:06:38;;;;;;;7.63;2.78;;;20.20;99.90;;;;;;5027521;28;20114;-85
2022/08/20 10:09:05;;;;;;;7.55;2.33;;;20.00;99.90;;;;;;5025923;28;20120;-85
2022/08/20 10:11:31;;;;;;;6.57;2.38;;;19.90;99.90;;;;;;5025894;28;20044;-85
2022/08/20 10:13:57;;;;;;;8.48;2.00;;;19.80;99.90;;;;;;5025214;28;20050;-85
2022/08/20 10:16:22;;;;;;;6.82;2.25;;;19.70;99.90;;;;;;5010224;28;20045;-85
2022/08/20 10:18:48;;;;;;;10.32;3.10;;;19.60;99.90;;;;;;5058313;28;20076;-85
2022/08/20 10:21:15;;;;;;;7.97;3.35;;;19.60;99.90;;;;;;5026552;28;20044;-85
2022/08/20 10:23:41;;;;;;;12.27;2.45;;;19.60;99.90;;;;;;5025132;28;20140;-84
2022/08/20 10:26:09;;;;;;;8.85;2.17;;;19.50;99.90;;;;;;5026379;28;20516;-83
2022/08/20 10:28:35;;;;;;;8.85;2.88;;;19.60;99.90;;;;;;5025817;28;20961;-85
2022/08/20 10:31:03;;;;;;;7.97;2.70;;;19.60;99.90;;;;;;5027940;28;20042;-85
2022/08/20 10:33:29;;;;;;;9.20;2.45;;;19.70;99.90;;;;;;5025820;28;20061;-85
2022/08/20 10:35:54;;;;;;;9.32;3.25;;;19.80;99.90;;;;;;5025223;28;20041;-85
2022/08/20 10:38:20;;;;;;;9.35;2.90;;;19.90;99.90;;;;;;5024952;28;20042;-85
2022/08/20 10:40:46;;;;;;;7.57;2.88;;;20.10;99.90;;;;;;5025228;28;20054;-85
2022/08/20 10:43:12;;;;;;;9.57;2.28;;;20.30;99.90;;;;;;5025049;28;20042;-85
2022/08/20 10:45:37;;;;;;;8.95;2.22;;;20.50;99.90;;;;;;5024624;28;20079;-85
2022/08/20 10:48:03;;;;;;;8.48;2.55;;;20.60;99.90;;;;;;5028337;28;20041;-85
2022/08/20 10:50:29;;;;;;;9.93;2.05;;;20.70;99.90;;;;;;5028078;28;20037;-85
2022/08/20 10:52:55;;;;;;;10.80;2.30;;;20.60;99.90;;;;;;5026494;28;20140;-85
2022/08/20 10:55:21;;;;;;;13.32;2.65;;;20.60;99.90;;;;;;5024165;28;20530;-85
2022/08/20 10:57:46;;;;;;;9.43;3.03;;;20.60;99.90;;;;;;5025949;28;20045;-85
2022/08/20 11:00:15;;;;;;;7.65;3.08;;;20.60;99.90;;;;;;5027993;28;20033;-84
2022/08/20 11:02:41;;;;;;;10.45;2.40;;;20.60;99.90;;;;;;5042393;28;20050;-85
2022/08/20 11:05:07;;;;;;;9.00;2.35;;;20.50;99.90;;;;;;5023581;28;20038;-84
2022/08/20 11:07:36;;;;;;;7.45;2.33;;;20.40;99.90;;;;;;5019293;28;20041;-81
2022/08/20 11:10:05;;;;;;;9.50;2.03;;;20.60;99.90;;;;;;5023475;28;20030;-90
2022/08/20 11:12:31;;;;;;;7.38;2.20;;;20.70;99.90;;;;;;5027061;28;20521;-92
2022/08/20 11:14:57;;;;;;;6.75;2.83;;;20.80;99.90;;;;;;5027313;28;20049;-86
2022/08/20 11:17:27;;;;;;;10.13;3.22;;;20.80;99.90;;;;;;5019862;28;20038;-82
2022/08/20 11:19:54;;;;;;;6.95;2.58;;;20.80;99.90;;;;;;5019474;28;20575;-82
2022/08/20 11:22:21;;;;;;;9.90;2.22;;;20.70;99.90;;;;;;5016500;28;20050;-87
2022/08/20 11:24:47;;;;;;;11.63;3.60;;;20.60;99.90;;;;;;5026536;28;20042;-89
2022/08/20 11:27:27;;;;;;;9.85;2.63;;;20.50;99.90;;;;;;5026085;28;20087;-91
2022/08/20 11:29:53;;;;;;;7.38;3.58;;;20.40;99.90;;;;;;5025795;28;20119;-90
2022/08/20 11:32:20;;;;;;;6.13;2.38;;;20.40;99.90;;;;;;5023802;28;20485;-92
2022/08/20 11:34:46;;;;;;;5.72;1.80;;;20.30;99.90;;;;;;5020324;28;20050;-84
2022/08/20 11:37:13;;;;;;;10.18;2.55;;;20.40;99.90;;;;;;5020933;28;20040;-85
2022/08/20 11:39:39;;;;;;;11.77;2.60;;;20.50;99.90;;;;;;5022435;28;20049;-87
2022/08/20 11:42:08;;;;;;;8.77;1.90;;;20.60;99.90;;;;;;5017850;28;20096;-90
2022/08/20 11:44:34;;;;;;;14.60;2.95;;;20.80;99.90;;;;;;5024240;28;20070;-87
2022/08/20 11:47:02;;;;;;;7.50;2.42;;;21.00;99.90;;;;;;5023317;28;20124;-84
2022/08/20 11:49:33;;;;;;;116.05;44.45;;;21.00;99.90;;;;;;5023863;28;20061;-82
2022/08/20 11:51:59;;;;;;;51.00;14.30;;;21.00;99.90;;;;;;5061469;28;20034;-80
2022/08/20 11:54:27;;;;;;;11.52;3.22;;;21.00;99.90;;;;;;5022890;28;20842;-81
2022/08/20 11:56:55;;;;;;;8.90;2.50;;;21.10;99.90;;;;;;5024098;28;20034;-82
2022/08/20 11:59:21;;;;;;;10.38;4.10;;;21.30;99.90;;;;;;5023789;28;20113;-82
2022/08/20 12:01:46;;;;;;;5.68;2.35;;;21.30;99.90;;;;;;5026487;28;21931;-82
2022/08/20 12:04:12;;;;;;;9.73;3.60;;;21.30;99.90;;;;;;5022202;28;20057;-82
2022/08/20 12:06:38;;;;;;;12.25;3.03;;;21.30;99.90;;;;;;5025908;28;20042;-82
2022/08/20 12:09:04;;;;;;;10.45;2.67;;;21.20;99.90;;;;;;5026388;28;20053;-83
2022/08/20 12:11:29;;;;;;;7.38;3.40;;;21.10;99.90;;;;;;5021727;28;20048;-81
2022/08/20 12:13:55;;;;;;;10.32;2.50;;;21.00;99.90;;;;;;5026527;28;20757;-81
2022/08/20 12:16:21;;;;;;;8.25;2.55;;;21.00;99.90;;;;;;5022121;28;20072;-82
2022/08/20 12:18:47;;;;;;;7.97;2.22;;;20.90;99.90;;;;;;5023179;28;20619;-82
2022/08/20 12:21:14;;;;;;;7.55;2.13;;;20.90;99.90;;;;;;5025281;28;20712;-80
2022/08/20 12:23:39;;;;;;;8.93;2.10;;;20.90;99.90;;;;;;5023711;28;20212;-81
2022/08/20 12:26:05;;;;;;;6.75;2.17;;;20.90;99.90;;;;;;5023477;28;20048;-82
2022/08/20 12:28:31;;;;;;;13.00;3.00;;;20.90;99.90;;;;;;5025863;28;20132;-81
2022/08/20 12:30:58;;;;;;;9.50;2.85;;;20.90;99.90;;;;;;5023818;28;20042;-82
2022/08/20 12:33:24;;;;;;;9.77;2.40;;;20.90;99.90;;;;;;5024528;28;20570;-82
2022/08/20 12:35:50;;;;;;;5.65;1.63;;;20.80;99.90;;;;;;5021979;28;20038;-81
2022/08/20 12:38:16;;;;;;;6.28;2.00;;;20.80;99.90;;;;;;5026167;28;20038;-82
2022/08/20 12:40:41;;;;;;;9.30;2.15;;;20.70;99.90;;;;;;5024215;28;20062;-81
2022/08/20 12:43:07;;;;;;;7.05;1.85;;;20.80;99.90;;;;;;5021913;28;20042;-82
2022/08/20 12:45:34;;;;;;;4.57;1.70;;;20.70;99.90;;;;;;5023954;28;20049;-82
2022/08/20 12:48:11;;;;;;;8.88;2.45;;;20.80;99.90;;;;;;5026597;28;20038;-88
2022/08/20 12:50:40;;;;;;;6.32;1.73;;;20.80;99.90;;;;;;5026656;28;20042;-93
2022/08/20 12:53:06;;;;;;;7.05;3.15;;;20.80;99.90;;;;;;5025381;28;21543;-92